createdAt,value
2018-06-09T00:00:45.438Z,0.00
2018-06-09T00:01:45.375Z,0.00
2018-06-09T00:02:45.338Z,0.00
2018-06-09T00:03:45.234Z,0.00
2018-06-09T00:04:45.155Z,0.00
2018-06-09T00:05:45.087Z,0.00
2018-06-09T00:06:45.030Z,0.00
2018-06-09T00:07:44.943Z,0.00
2018-06-09T00:08:44.866Z,0.00
2018-06-09T00:09:44.802Z,0.00
2018-06-09T00:10:44.726Z,0.00
2018-06-09T00:11:44.663Z,0.00
2018-06-09T00:12:44.578Z,0.00
2018-06-09T00:13:44.515Z,0.00
2018-06-09T00:14:44.437Z,0.00
2018-06-09T00:15:44.372Z,0.00
2018-06-09T00:16:44.296Z,0.00
2018-06-09T00:17:44.229Z,0.00
2018-06-09T00:18:44.153Z,0.00
2018-06-09T00:19:44.092Z,0.00
2018-06-09T00:20:44.008Z,0.00
2018-06-09T00:21:43.949Z,0.00
2018-06-09T00:22:43.867Z,0.00
2018-06-09T00:23:43.812Z,0.00
2018-06-09T00:24:43.726Z,0.00
2018-06-09T00:25:43.660Z,0.00
2018-06-09T00:26:43.579Z,0.00
2018-06-09T00:27:43.513Z,0.00
2018-06-09T00:28:43.436Z,0.00
2018-06-09T00:29:43.377Z,0.00
2018-06-09T00:30:43.296Z,0.00
2018-06-09T00:31:43.232Z,0.00
2018-06-09T00:32:43.151Z,0.00
2018-06-09T00:33:43.084Z,0.00
2018-06-09T00:34:43.003Z,0.00
2018-06-09T00:35:42.941Z,0.00
2018-06-09T00:36:42.860Z,0.00
2018-06-09T00:37:42.799Z,0.00
2018-06-09T00:38:42.723Z,0.00
2018-06-09T00:39:42.649Z,0.00
2018-06-09T00:40:42.579Z,0.00
2018-06-09T00:41:42.515Z,0.00
2018-06-09T00:42:42.430Z,0.00
2018-06-09T00:43:42.368Z,0.00
2018-06-09T00:44:42.284Z,0.00
2018-06-09T00:45:42.222Z,0.00
2018-06-09T00:46:42.140Z,0.00
2018-06-09T00:47:42.079Z,0.00
2018-06-09T00:48:41.998Z,0.00
2018-06-09T00:49:41.938Z,0.00
2018-06-09T00:50:41.855Z,0.00
2018-06-09T00:51:41.796Z,0.00
2018-06-09T00:52:41.710Z,0.00
2018-06-09T00:53:41.647Z,0.00
2018-06-09T00:54:41.565Z,0.00
2018-06-09T00:55:41.500Z,0.00
2018-06-09T00:56:41.425Z,0.00
2018-06-09T00:57:41.361Z,0.00
2018-06-09T00:58:41.285Z,0.00
2018-06-09T00:59:41.218Z,0.00
2018-06-09T01:00:41.134Z,0.00
2018-06-09T01:01:41.069Z,0.00
2018-06-09T01:02:40.991Z,0.00
2018-06-09T01:03:40.928Z,0.00
2018-06-09T01:04:40.851Z,0.00
2018-06-09T01:05:40.782Z,0.00
2018-06-09T01:06:40.712Z,0.00
2018-06-09T01:07:40.638Z,0.00
2018-06-09T01:08:40.558Z,0.00
2018-06-09T01:09:40.503Z,0.00
2018-06-09T01:10:40.411Z,0.00
2018-06-09T01:11:41.354Z,0.00
2018-06-09T01:12:40.270Z,0.00
2018-06-09T01:13:40.204Z,0.00
2018-06-09T01:14:40.126Z,0.00
2018-06-09T01:15:40.057Z,0.00
2018-06-09T01:16:39.987Z,0.00
2018-06-09T01:17:39.921Z,0.00
2018-06-09T01:18:39.839Z,0.00
2018-06-09T01:19:39.773Z,0.00
2018-06-09T01:20:39.690Z,0.00
2018-06-09T01:21:39.627Z,0.00
2018-06-09T01:22:39.549Z,0.00
2018-06-09T01:23:39.481Z,0.00
2018-06-09T01:24:39.406Z,0.00
2018-06-09T01:25:39.339Z,0.00
2018-06-09T01:26:39.260Z,0.00
2018-06-09T01:27:39.194Z,0.00
2018-06-09T01:28:39.125Z,0.00
2018-06-09T01:29:39.057Z,0.00
2018-06-09T01:30:38.972Z,0.00
2018-06-09T01:31:38.906Z,0.00
2018-06-09T01:32:38.834Z,0.00
2018-06-09T01:33:38.760Z,0.00
2018-06-09T01:34:38.683Z,0.00
2018-06-09T01:35:38.619Z,0.00
2018-06-09T01:36:38.535Z,0.00
2018-06-09T01:37:38.471Z,0.00
2018-06-09T01:38:38.393Z,0.00
2018-06-09T01:39:38.318Z,0.00
2018-06-09T01:40:38.257Z,0.00
2018-06-09T01:41:38.174Z,0.00
2018-06-09T01:42:38.107Z,0.00
2018-06-09T01:43:38.032Z,0.00
2018-06-09T01:44:37.967Z,0.00
2018-06-09T01:45:37.883Z,0.00
2018-06-09T01:46:37.823Z,0.00
2018-06-09T01:47:37.740Z,0.00
2018-06-09T01:48:37.684Z,0.00
2018-06-09T01:49:37.595Z,0.00
2018-06-09T01:50:37.528Z,0.00
2018-06-09T01:51:37.449Z,0.00
2018-06-09T01:52:37.387Z,0.00
2018-06-09T01:53:37.304Z,0.00
2018-06-09T01:54:37.252Z,0.00
2018-06-09T01:55:37.160Z,0.00
2018-06-09T01:56:37.095Z,0.00
2018-06-09T01:57:37.016Z,0.00
2018-06-09T01:58:36.959Z,0.00
2018-06-09T01:59:36.872Z,0.00
2018-06-09T02:00:36.813Z,0.00
2018-06-09T02:01:36.726Z,0.00
2018-06-09T02:02:36.660Z,0.00
2018-06-09T02:03:36.588Z,0.00
2018-06-09T02:04:36.515Z,0.00
2018-06-09T02:05:36.436Z,0.00
2018-06-09T02:06:36.373Z,0.00
2018-06-09T02:07:36.292Z,0.00
2018-06-09T02:08:36.231Z,0.00
2018-06-09T02:09:36.145Z,0.00
2018-06-09T02:10:36.078Z,0.00
2018-06-09T02:11:36.002Z,0.00
2018-06-09T02:12:35.936Z,0.00
2018-06-09T02:13:35.860Z,0.00
2018-06-09T02:14:35.797Z,0.00
2018-06-09T02:15:35.711Z,0.00
2018-06-09T02:16:36.650Z,0.00
2018-06-09T02:17:35.567Z,0.00
2018-06-09T02:18:35.501Z,0.00
2018-06-09T02:19:35.423Z,0.00
2018-06-09T02:20:35.366Z,0.00
2018-06-09T02:21:35.275Z,0.00
2018-06-09T02:22:35.214Z,0.00
2018-06-09T02:23:35.130Z,0.00
2018-06-09T02:24:35.061Z,0.00
2018-06-09T02:25:34.985Z,0.00
2018-06-09T02:26:34.921Z,0.00
2018-06-09T02:27:34.840Z,0.00
2018-06-09T02:28:34.771Z,0.00
2018-06-09T02:29:34.696Z,0.00
2018-06-09T02:30:34.630Z,0.00
2018-06-09T02:31:34.551Z,0.00
2018-06-09T02:32:34.483Z,0.00
2018-06-09T02:33:34.403Z,0.00
2018-06-09T02:34:34.342Z,0.00
2018-06-09T02:35:34.257Z,0.00
2018-06-09T02:36:34.200Z,0.00
2018-06-09T02:37:34.114Z,0.00
2018-06-09T02:38:34.054Z,0.00
2018-06-09T02:39:33.968Z,0.00
2018-06-09T02:40:33.906Z,0.00
2018-06-09T02:41:33.825Z,0.00
2018-06-09T02:42:33.761Z,0.00
2018-06-09T02:43:33.679Z,0.00
2018-06-09T02:44:33.611Z,0.00
2018-06-09T02:45:33.535Z,0.00
2018-06-09T02:46:33.465Z,0.00
2018-06-09T02:47:33.388Z,0.00
2018-06-09T02:48:33.322Z,0.00
2018-06-09T02:49:33.243Z,4.00
2018-06-09T02:50:33.175Z,0.00
2018-06-09T02:51:33.094Z,0.00
2018-06-09T02:52:33.028Z,4.00
2018-06-09T02:53:32.950Z,4.00
2018-06-09T02:54:32.889Z,0.00
2018-06-09T02:55:32.807Z,4.00
2018-06-09T02:56:32.743Z,4.00
2018-06-09T02:57:32.658Z,4.00
2018-06-09T02:58:32.596Z,4.00
2018-06-09T02:59:32.513Z,0.00
2018-06-09T03:00:33.449Z,4.00
2018-06-09T03:01:32.367Z,4.00
2018-06-09T03:02:32.306Z,4.00
2018-06-09T03:03:32.247Z,4.00
2018-06-09T03:04:32.161Z,8.00
2018-06-09T03:05:32.073Z,4.00
2018-06-09T03:06:32.013Z,8.00
2018-06-09T03:07:31.930Z,4.00
2018-06-09T03:08:31.861Z,8.00
2018-06-09T03:09:31.786Z,8.00
2018-06-09T03:10:31.719Z,8.00
2018-06-09T03:11:31.640Z,12.00
2018-06-09T03:12:31.579Z,8.00
2018-06-09T03:13:31.496Z,12.00
2018-06-09T03:14:31.437Z,12.00
2018-06-09T03:15:31.352Z,16.00
2018-06-09T03:16:31.281Z,12.00
2018-06-09T03:17:31.201Z,12.00
2018-06-09T03:18:31.135Z,16.00
2018-06-09T03:19:31.062Z,20.00
2018-06-09T03:20:31.003Z,20.00
2018-06-09T03:21:30.913Z,16.00
2018-06-09T03:22:30.850Z,20.00
2018-06-09T03:23:30.766Z,20.00
2018-06-09T03:24:30.698Z,24.00
2018-06-09T03:25:30.645Z,24.00
2018-06-09T03:26:30.552Z,28.00
2018-06-09T03:27:30.472Z,28.00
2018-06-09T03:28:30.404Z,28.00
2018-06-09T03:29:30.326Z,28.00
2018-06-09T03:30:30.259Z,32.00
2018-06-09T03:31:30.187Z,32.00
2018-06-09T03:32:30.145Z,36.00
2018-06-09T03:33:30.033Z,36.00
2018-06-09T03:34:29.970Z,36.00
2018-06-09T03:35:29.885Z,40.00
2018-06-09T03:36:29.824Z,44.00
2018-06-09T03:37:29.744Z,44.00
2018-06-09T03:38:29.680Z,48.00
2018-06-09T03:39:29.599Z,52.00
2018-06-09T03:40:30.533Z,52.00
2018-06-09T03:41:29.450Z,56.00
2018-06-09T03:42:29.384Z,52.00
2018-06-09T03:43:29.303Z,56.00
2018-06-09T03:44:29.238Z,60.00
2018-06-09T03:45:29.159Z,64.00
2018-06-09T03:46:29.097Z,64.00
2018-06-09T03:47:29.018Z,68.00
2018-06-09T03:48:28.944Z,72.00
2018-06-09T03:49:28.868Z,76.00
2018-06-09T03:50:28.838Z,80.00
2018-06-09T03:51:28.720Z,80.00
2018-06-09T03:52:28.657Z,84.00
2018-06-09T03:53:28.575Z,84.00
2018-06-09T03:54:28.509Z,88.00
2018-06-09T03:55:28.431Z,92.00
2018-06-09T03:56:28.361Z,92.00
2018-06-09T03:57:28.284Z,96.00
2018-06-09T03:58:28.216Z,100.00
2018-06-09T03:59:28.137Z,100.00
2018-06-09T04:00:28.068Z,104.00
2018-06-09T04:01:28.003Z,104.00
2018-06-09T04:02:27.928Z,108.00
2018-06-09T04:03:28.666Z,108.00
2018-06-09T04:04:27.786Z,116.00
2018-06-09T04:05:27.699Z,116.00
2018-06-09T04:06:27.628Z,120.00
2018-06-09T04:07:27.550Z,120.00
2018-06-09T04:08:27.485Z,124.00
2018-06-09T04:09:27.404Z,128.00
2018-06-09T04:10:27.338Z,128.00
2018-06-09T04:11:27.259Z,132.00
2018-06-09T04:12:27.194Z,132.00
2018-06-09T04:13:27.113Z,132.00
2018-06-09T04:14:27.045Z,136.00
2018-06-09T04:15:26.965Z,140.00
2018-06-09T04:16:27.992Z,144.00
2018-06-09T04:17:26.822Z,144.00
2018-06-09T04:18:26.777Z,148.00
2018-06-09T04:19:26.667Z,152.00
2018-06-09T04:20:26.606Z,152.00
2018-06-09T04:21:26.529Z,156.00
2018-06-09T04:22:26.497Z,156.00
2018-06-09T04:23:26.383Z,156.00
2018-06-09T04:24:26.406Z,156.00
2018-06-09T04:25:26.234Z,160.00
2018-06-09T04:26:26.186Z,164.00
2018-06-09T04:27:26.086Z,164.00
2018-06-09T04:28:26.158Z,168.00
2018-06-09T04:29:25.951Z,168.00
2018-06-09T04:30:25.935Z,168.00
2018-06-09T04:31:25.796Z,172.00
2018-06-09T04:32:25.745Z,172.00
2018-06-09T04:33:25.648Z,176.00
2018-06-09T04:34:25.582Z,176.00
2018-06-09T04:35:25.504Z,180.00
2018-06-09T04:36:25.465Z,180.00
2018-06-09T04:37:25.356Z,180.00
2018-06-09T04:38:25.374Z,184.00
2018-06-09T04:39:25.212Z,188.00
2018-06-09T04:40:25.187Z,192.00
2018-06-09T04:41:25.067Z,192.00
2018-06-09T04:42:25.096Z,192.00
2018-06-09T04:43:24.918Z,196.00
2018-06-09T04:44:24.904Z,196.00
2018-06-09T04:45:24.771Z,200.00
2018-06-09T04:46:24.815Z,200.00
2018-06-09T04:47:24.628Z,204.00
2018-06-09T04:48:24.625Z,208.00
2018-06-09T04:49:24.483Z,208.00
2018-06-09T04:50:24.432Z,212.00
2018-06-09T04:51:24.332Z,212.00
2018-06-09T04:52:24.269Z,220.00
2018-06-09T04:53:24.190Z,220.00
2018-06-09T04:54:24.126Z,220.00
2018-06-09T04:55:24.047Z,224.00
2018-06-09T04:56:23.980Z,228.00
2018-06-09T04:57:23.895Z,228.00
2018-06-09T04:58:23.880Z,232.00
2018-06-09T04:59:23.757Z,232.00
2018-06-09T05:00:23.687Z,232.00
2018-06-09T05:01:23.607Z,236.00
2018-06-09T05:02:23.540Z,240.00
2018-06-09T05:03:23.460Z,240.00
2018-06-09T05:04:23.398Z,240.00
2018-06-09T05:05:23.315Z,240.00
2018-06-09T05:06:23.251Z,244.00
2018-06-09T05:07:23.175Z,248.00
2018-06-09T05:08:23.106Z,256.00
2018-06-09T05:09:23.023Z,260.00
2018-06-09T05:10:22.972Z,268.00
2018-06-09T05:11:22.880Z,272.00
2018-06-09T05:12:22.816Z,276.00
2018-06-09T05:13:22.732Z,276.00
2018-06-09T05:14:22.672Z,280.00
2018-06-09T05:15:22.588Z,284.00
2018-06-09T05:16:22.524Z,284.00
2018-06-09T05:17:22.447Z,292.00
2018-06-09T05:18:22.402Z,296.00
2018-06-09T05:19:22.296Z,300.00
2018-06-09T05:20:22.233Z,300.00
2018-06-09T05:21:22.155Z,304.00
2018-06-09T05:22:22.088Z,308.00
2018-06-09T05:23:22.008Z,312.00
2018-06-09T05:24:21.942Z,308.00
2018-06-09T05:25:21.863Z,308.00
2018-06-09T05:26:21.845Z,312.00
2018-06-09T05:27:21.721Z,320.00
2018-06-09T05:28:21.657Z,324.00
2018-06-09T05:29:21.573Z,328.00
2018-06-09T05:30:21.513Z,328.00
2018-06-09T05:31:21.431Z,336.00
2018-06-09T05:32:21.366Z,340.00
2018-06-09T05:33:21.283Z,352.00
2018-06-09T05:34:21.224Z,364.00
2018-06-09T05:35:21.138Z,376.00
2018-06-09T05:36:21.078Z,384.00
2018-06-09T05:37:20.997Z,396.00
2018-06-09T05:38:20.933Z,412.00
2018-06-09T05:39:20.849Z,432.00
2018-06-09T05:40:20.788Z,448.00
2018-06-09T05:41:20.709Z,464.00
2018-06-09T05:42:20.647Z,476.00
2018-06-09T05:43:20.562Z,488.00
2018-06-09T05:44:20.500Z,496.00
2018-06-09T05:45:20.421Z,504.00
2018-06-09T05:46:20.358Z,512.00
2018-06-09T05:47:20.274Z,520.00
2018-06-09T05:48:21.217Z,532.00
2018-06-09T05:49:20.130Z,540.00
2018-06-09T05:50:20.066Z,544.00
2018-06-09T05:51:19.987Z,552.00
2018-06-09T05:52:19.941Z,556.00
2018-06-09T05:53:19.856Z,560.00
2018-06-09T05:54:19.783Z,564.00
2018-06-09T05:55:19.702Z,568.00
2018-06-09T05:56:19.639Z,572.00
2018-06-09T05:57:19.556Z,572.00
2018-06-09T05:58:19.496Z,572.00
2018-06-09T05:59:24.527Z,576.00
2018-06-09T06:00:19.346Z,576.00
2018-06-09T06:01:19.272Z,576.00
2018-06-09T06:02:19.209Z,580.00
2018-06-09T06:03:19.128Z,588.00
2018-06-09T06:04:19.068Z,592.00
2018-06-09T06:05:18.986Z,604.00
2018-06-09T06:06:18.921Z,612.00
2018-06-09T06:07:18.842Z,628.00
2018-06-09T06:08:18.786Z,632.00
2018-06-09T06:09:18.709Z,656.00
2018-06-09T06:10:18.642Z,668.00
2018-06-09T06:11:18.559Z,688.00
2018-06-09T06:12:18.496Z,704.00
2018-06-09T06:13:18.416Z,720.00
2018-06-09T06:14:18.363Z,740.00
2018-06-09T06:15:18.275Z,756.00
2018-06-09T06:16:18.218Z,776.00
2018-06-09T06:17:18.132Z,788.00
2018-06-09T06:18:18.067Z,804.00
2018-06-09T06:19:17.988Z,820.00
2018-06-09T06:20:17.924Z,844.00
2018-06-09T06:21:17.847Z,868.00
2018-06-09T06:22:17.785Z,888.00
2018-06-09T06:23:17.706Z,916.00
2018-06-09T06:24:17.650Z,884.00
2018-06-09T06:25:17.565Z,964.00
2018-06-09T06:26:17.499Z,980.00
2018-06-09T06:27:17.421Z,1000.00
2018-06-09T06:28:17.364Z,1016.00
2018-06-09T06:29:17.279Z,1028.00
2018-06-09T06:30:17.218Z,1044.00
2018-06-09T06:31:17.141Z,1064.00
2018-06-09T06:32:17.076Z,1072.00
2018-06-09T06:33:16.998Z,1088.00
2018-06-09T06:34:16.936Z,1100.00
2018-06-09T06:35:16.860Z,1112.00
2018-06-09T06:36:16.797Z,1124.00
2018-06-09T06:37:16.720Z,1136.00
2018-06-09T06:38:16.655Z,1140.00
2018-06-09T06:39:16.573Z,1148.00
2018-06-09T06:40:16.512Z,1152.00
2018-06-09T06:41:16.436Z,1156.00
2018-06-09T06:42:16.375Z,1164.00
2018-06-09T06:43:16.293Z,1168.00
2018-06-09T06:44:16.232Z,1176.00
2018-06-09T06:45:16.154Z,1180.00
2018-06-09T06:46:16.096Z,1192.00
2018-06-09T06:47:16.038Z,1192.00
2018-06-09T06:48:15.952Z,1196.00
2018-06-09T06:49:15.871Z,1208.00
2018-06-09T06:50:15.833Z,1212.00
2018-06-09T06:51:15.739Z,1220.00
2018-06-09T06:52:15.673Z,1224.00
2018-06-09T06:53:15.596Z,1236.00
2018-06-09T06:54:15.532Z,1244.00
2018-06-09T06:55:15.458Z,1248.00
2018-06-09T06:56:15.393Z,1260.00
2018-06-09T06:57:15.321Z,1256.00
2018-06-09T06:58:15.256Z,1260.00
2018-06-09T06:59:15.176Z,1264.00
2018-06-09T07:00:15.119Z,1264.00
2018-06-09T07:01:15.036Z,1272.00
2018-06-09T07:02:14.976Z,1276.00
2018-06-09T07:03:14.897Z,1288.00
2018-06-09T07:04:14.834Z,1300.00
2018-06-09T07:05:14.762Z,1312.00
2018-06-09T07:06:14.699Z,1324.00
2018-06-09T07:07:14.621Z,1348.00
2018-06-09T07:08:14.559Z,1360.00
2018-06-09T07:09:14.487Z,1376.00
2018-06-09T07:10:14.425Z,1388.00
2018-06-09T07:11:14.345Z,1412.00
2018-06-09T07:12:14.287Z,1428.00
2018-06-09T07:13:14.206Z,1444.00
2018-06-09T07:14:14.145Z,1480.00
2018-06-09T07:15:14.068Z,1500.00
2018-06-09T07:16:14.004Z,1532.00
2018-06-09T07:17:13.931Z,1568.00
2018-06-09T07:18:13.880Z,1600.00
2018-06-09T07:19:13.795Z,1644.00
2018-06-09T07:20:13.729Z,1688.00
2018-06-09T07:21:13.657Z,1728.00
2018-06-09T07:22:13.602Z,1772.00
2018-06-09T07:23:13.517Z,1872.00
2018-06-09T07:24:13.462Z,1948.00
2018-06-09T07:25:13.385Z,2028.00
2018-06-09T07:26:13.321Z,2072.00
2018-06-09T07:27:13.244Z,2136.00
2018-06-09T07:28:13.180Z,2176.00
2018-06-09T07:29:13.108Z,2220.00
2018-06-09T07:30:13.046Z,2256.00
2018-06-09T07:31:12.972Z,2272.00
2018-06-09T07:32:12.909Z,2296.00
2018-06-09T07:33:12.833Z,2312.00
2018-06-09T07:34:12.773Z,2352.00
2018-06-09T07:35:12.749Z,2404.00
2018-06-09T07:36:12.638Z,2428.00
2018-06-09T07:37:12.568Z,2432.00
2018-06-09T07:38:12.501Z,2484.00
2018-06-09T07:39:12.424Z,2528.00
2018-06-09T07:40:12.367Z,2592.00
2018-06-09T07:41:12.292Z,2596.00
2018-06-09T07:42:12.240Z,2612.00
2018-06-09T07:43:12.152Z,2636.00
2018-06-09T07:44:12.094Z,2648.00
2018-06-09T07:45:12.026Z,2684.00
2018-06-09T07:46:11.963Z,2724.00
2018-06-09T07:47:11.885Z,2740.00
2018-06-09T07:48:11.826Z,2772.00
2018-06-09T07:49:11.751Z,2800.00
2018-06-09T07:50:11.697Z,2832.00
2018-06-09T07:51:11.618Z,2832.00
2018-06-09T07:52:11.567Z,2880.00
2018-06-09T07:53:11.485Z,2852.00
2018-06-09T07:54:11.499Z,2880.00
2018-06-09T07:55:11.348Z,2928.00
2018-06-09T07:56:11.288Z,2944.00
2018-06-09T07:57:11.221Z,2956.00
2018-06-09T07:58:11.157Z,2980.00
2018-06-09T07:59:11.082Z,2928.00
2018-06-09T08:00:11.020Z,2960.00
2018-06-09T08:01:10.945Z,3004.00
2018-06-09T08:02:10.893Z,3000.00
2018-06-09T08:03:10.814Z,2996.00
2018-06-09T08:04:10.748Z,3000.00
2018-06-09T08:05:10.681Z,3028.00
2018-06-09T08:06:10.623Z,3056.00
2018-06-09T08:07:10.548Z,3060.00
2018-06-09T08:08:10.752Z,3076.00
2018-06-09T08:09:10.420Z,3076.00
2018-06-09T08:10:10.358Z,3084.00
2018-06-09T08:11:10.286Z,3088.00
2018-06-09T08:12:10.337Z,3068.00
2018-06-09T08:13:10.155Z,3060.00
2018-06-09T08:14:10.144Z,3060.00
2018-06-09T08:15:10.018Z,3040.00
2018-06-09T08:16:10.058Z,3016.00
2018-06-09T08:17:09.889Z,3052.00
2018-06-09T08:18:09.873Z,3064.00
2018-06-09T08:19:09.762Z,3092.00
2018-06-09T08:20:09.783Z,3120.00
2018-06-09T08:21:09.629Z,3120.00
2018-06-09T08:22:09.593Z,3104.00
2018-06-09T08:23:09.496Z,3132.00
2018-06-09T08:24:09.502Z,3136.00
2018-06-09T08:25:09.363Z,3124.00
2018-06-09T08:26:09.412Z,3112.00
2018-06-09T08:27:09.231Z,3096.00
2018-06-09T08:28:09.220Z,3100.00
2018-06-09T08:29:09.160Z,3116.00
2018-06-09T08:30:09.130Z,3132.00
2018-06-09T08:31:08.970Z,3128.00
2018-06-09T08:32:08.940Z,3132.00
2018-06-09T08:33:08.845Z,3144.00
2018-06-09T08:34:08.853Z,3132.00
2018-06-09T08:35:08.712Z,3132.00
2018-06-09T08:36:08.682Z,3136.00
2018-06-09T08:37:08.577Z,3132.00
2018-06-09T08:38:08.573Z,3104.00
2018-06-09T08:39:08.447Z,3112.00
2018-06-09T08:40:08.493Z,3100.00
2018-06-09T08:41:08.321Z,3080.00
2018-06-09T08:42:08.302Z,3088.00
2018-06-09T08:43:08.191Z,3132.00
2018-06-09T08:44:08.130Z,3140.00
2018-06-09T08:45:08.109Z,3144.00
2018-06-09T08:46:07.997Z,3128.00
2018-06-09T08:47:08.021Z,3120.00
2018-06-09T08:48:07.865Z,3100.00
2018-06-09T08:49:07.825Z,3100.00
2018-06-09T08:50:07.738Z,3088.00
2018-06-09T08:51:07.740Z,3080.00
2018-06-09T08:52:07.605Z,3104.00
2018-06-09T08:53:07.652Z,3100.00
2018-06-09T08:54:07.484Z,3108.00
2018-06-09T08:55:07.465Z,3112.00
2018-06-09T08:56:07.351Z,3108.00
2018-06-09T08:57:07.377Z,3088.00
2018-06-09T08:58:07.219Z,3068.00
2018-06-09T08:59:07.187Z,3064.00
2018-06-09T09:00:07.096Z,3068.00
2018-06-09T09:01:07.091Z,3064.00
2018-06-09T09:02:06.966Z,3060.00
2018-06-09T09:03:07.053Z,3048.00
2018-06-09T09:04:06.842Z,3056.00
2018-06-09T09:05:06.814Z,3060.00
2018-06-09T09:06:06.713Z,3044.00
2018-06-09T09:07:06.722Z,3032.00
2018-06-09T09:08:06.580Z,3036.00
2018-06-09T09:09:06.638Z,3048.00
2018-06-09T09:10:06.459Z,3040.00
2018-06-09T09:11:06.445Z,3052.00
2018-06-09T09:12:06.325Z,3048.00
2018-06-09T09:13:06.358Z,3044.00
2018-06-09T09:14:06.200Z,3048.00
2018-06-09T09:15:06.165Z,3064.00
2018-06-09T09:16:06.070Z,3052.00
2018-06-09T09:17:06.073Z,3080.00
2018-06-09T09:18:05.949Z,3076.00
2018-06-09T09:19:05.991Z,3040.00
2018-06-09T09:20:05.822Z,3036.00
2018-06-09T09:21:05.756Z,3032.00
2018-06-09T09:22:05.693Z,3032.00
2018-06-09T09:23:05.713Z,3016.00
2018-06-09T09:24:05.563Z,3036.00
2018-06-09T09:25:05.621Z,3048.00
2018-06-09T09:26:05.439Z,3040.00
2018-06-09T09:27:05.429Z,3032.00
2018-06-09T09:28:05.310Z,3028.00
2018-06-09T09:29:05.341Z,3020.00
2018-06-09T09:30:05.193Z,3016.00
2018-06-09T09:31:05.158Z,3004.00
2018-06-09T09:32:05.080Z,2972.00
2018-06-09T09:33:04.998Z,2940.00
2018-06-09T09:34:04.935Z,2948.00
2018-06-09T09:35:04.977Z,2936.00
2018-06-09T09:36:04.806Z,2932.00
2018-06-09T09:37:04.783Z,2952.00
2018-06-09T09:38:04.683Z,2964.00
2018-06-09T09:39:04.693Z,2980.00
2018-06-09T09:40:04.553Z,3020.00
2018-06-09T09:41:04.488Z,3040.00
2018-06-09T09:42:04.511Z,3044.00
2018-06-09T09:43:04.368Z,3060.00
2018-06-09T09:44:04.422Z,3048.00
2018-06-09T09:45:04.241Z,3036.00
2018-06-09T09:46:04.232Z,3008.00
2018-06-09T09:47:04.115Z,3008.00
2018-06-09T09:48:04.150Z,3008.00
2018-06-09T09:49:03.990Z,3008.00
2018-06-09T09:50:03.952Z,3020.00
2018-06-09T09:51:03.867Z,3032.00
2018-06-09T09:52:03.866Z,3036.00
2018-06-09T09:53:03.741Z,2992.00
2018-06-09T09:54:03.776Z,2964.00
2018-06-09T09:55:03.616Z,2992.00
2018-06-09T09:56:03.591Z,2992.00
2018-06-09T09:57:03.489Z,2960.00
2018-06-09T09:58:03.497Z,2868.00
2018-06-09T09:59:03.365Z,2768.00
2018-06-09T10:00:03.407Z,2912.00
2018-06-09T10:01:03.242Z,2052.00
2018-06-09T10:02:03.178Z,2960.00
2018-06-09T10:03:03.119Z,2960.00
2018-06-09T10:04:03.128Z,3000.00
2018-06-09T10:05:02.996Z,2984.00
2018-06-09T10:06:03.038Z,2980.00
2018-06-09T10:07:02.866Z,2916.00
2018-06-09T10:08:02.847Z,2840.00
2018-06-09T10:09:02.741Z,2824.00
2018-06-09T10:10:02.758Z,2836.00
2018-06-09T10:11:02.618Z,2812.00
2018-06-09T10:12:02.675Z,2788.00
2018-06-09T10:13:02.493Z,2796.00
2018-06-09T10:14:02.441Z,2776.00
2018-06-09T10:15:02.493Z,2748.00
2018-06-09T10:16:02.311Z,2760.00
2018-06-09T10:17:02.297Z,2740.00
2018-06-09T10:18:02.184Z,2768.00
2018-06-09T10:19:02.204Z,2768.00
2018-06-09T10:20:02.061Z,2712.00
2018-06-09T10:21:03.039Z,2692.00
2018-06-09T10:22:01.936Z,2756.00
2018-06-09T10:23:01.922Z,2768.00
2018-06-09T10:24:01.810Z,2768.00
2018-06-09T10:25:01.838Z,2804.00
2018-06-09T10:26:01.693Z,1744.00
2018-06-09T10:27:02.671Z,2728.00
2018-06-09T10:28:01.563Z,2712.00
2018-06-09T10:29:01.558Z,2684.00
2018-06-09T10:30:01.449Z,2680.00
2018-06-09T10:31:01.471Z,2628.00
2018-06-09T10:32:01.317Z,2588.00
2018-06-09T10:33:01.280Z,2560.00
2018-06-09T10:34:01.201Z,2576.00
2018-06-09T10:35:01.137Z,2616.00
2018-06-09T10:36:01.095Z,2624.00
2018-06-09T10:37:01.007Z,2608.00
2018-06-09T10:38:01.008Z,2608.00
2018-06-09T10:39:00.884Z,2600.00
2018-06-09T10:40:00.917Z,2600.00
2018-06-09T10:41:00.760Z,2576.00
2018-06-09T10:42:00.701Z,2564.00
2018-06-09T10:43:00.735Z,2564.00
2018-06-09T10:44:00.578Z,2568.00
2018-06-09T10:45:00.542Z,2564.00
2018-06-09T10:46:00.451Z,2560.00
2018-06-09T10:47:00.455Z,2552.00
2018-06-09T10:48:00.336Z,2552.00
2018-06-09T10:49:00.376Z,2548.00
2018-06-09T10:50:00.202Z,2528.00
2018-06-09T10:51:00.170Z,2504.00
2018-06-09T10:52:00.082Z,2488.00
2018-06-09T10:53:00.087Z,2480.00
2018-06-09T10:53:59.961Z,2480.00
2018-06-09T10:54:59.998Z,2480.00
2018-06-09T10:55:59.833Z,2464.00
2018-06-09T10:56:59.808Z,2452.00
2018-06-09T10:57:59.712Z,2428.00
2018-06-09T10:58:59.719Z,2400.00
2018-06-09T10:59:59.590Z,2380.00
2018-06-09T11:00:59.631Z,2364.00
2018-06-09T11:01:59.464Z,2356.00
2018-06-09T11:02:59.439Z,2368.00
2018-06-09T11:03:59.345Z,2340.00
2018-06-09T11:04:59.281Z,2336.00
2018-06-09T11:05:59.222Z,2364.00
2018-06-09T11:06:59.263Z,2372.00
2018-06-09T11:07:59.096Z,2372.00
2018-06-09T11:08:59.070Z,2344.00
2018-06-09T11:09:58.976Z,2320.00
2018-06-09T11:10:58.983Z,2300.00
2018-06-09T11:11:58.852Z,2252.00
2018-06-09T11:12:58.893Z,2260.00
2018-06-09T11:13:58.730Z,2204.00
2018-06-09T11:14:58.703Z,1892.00
2018-06-09T11:15:58.611Z,2292.00
2018-06-09T11:16:58.614Z,2276.00
2018-06-09T11:17:58.481Z,2284.00
2018-06-09T11:18:58.526Z,2296.00
2018-06-09T11:19:58.361Z,2296.00
2018-06-09T11:20:58.335Z,2300.00
2018-06-09T11:21:58.239Z,2304.00
2018-06-09T11:22:58.249Z,2316.00
2018-06-09T11:23:58.116Z,2308.00
2018-06-09T11:24:58.157Z,2304.00
2018-06-09T11:25:57.994Z,2288.00
2018-06-09T11:26:57.968Z,2276.00
2018-06-09T11:27:57.870Z,2284.00
2018-06-09T11:28:57.878Z,2292.00
2018-06-09T11:29:57.749Z,2320.00
2018-06-09T11:30:57.789Z,2360.00
2018-06-09T11:31:57.630Z,2324.00
2018-06-09T11:32:57.601Z,2324.00
2018-06-09T11:33:57.505Z,2332.00
2018-06-09T11:34:57.506Z,2344.00
2018-06-09T11:35:57.381Z,2352.00
2018-06-09T11:36:57.330Z,2360.00
2018-06-09T11:37:57.261Z,2352.00
2018-06-09T11:38:57.232Z,2356.00
2018-06-09T11:39:57.153Z,2352.00
2018-06-09T11:40:57.149Z,2372.00
2018-06-09T11:41:57.017Z,2392.00
2018-06-09T11:42:57.055Z,2416.00
2018-06-09T11:43:56.896Z,2428.00
2018-06-09T11:44:56.861Z,2452.00
2018-06-09T11:45:56.775Z,2396.00
2018-06-09T11:46:56.783Z,2376.00
2018-06-09T11:47:56.651Z,2348.00
2018-06-09T11:48:56.687Z,2336.00
2018-06-09T11:49:56.534Z,2300.00
2018-06-09T11:50:56.500Z,2296.00
2018-06-09T11:51:56.409Z,2300.00
2018-06-09T11:52:56.413Z,2292.00
2018-06-09T11:53:56.287Z,2336.00
2018-06-09T11:54:56.234Z,2316.00
2018-06-09T11:55:56.165Z,2320.00
2018-06-09T11:56:56.126Z,2332.00
2018-06-09T11:57:56.043Z,996.00
2018-06-09T11:58:56.040Z,960.00
2018-06-09T11:59:55.924Z,984.00
2018-06-09T12:00:55.951Z,1016.00
2018-06-09T12:01:55.802Z,1056.00
2018-06-09T12:02:55.862Z,1868.00
2018-06-09T12:03:55.680Z,2412.00
2018-06-09T12:04:55.676Z,2432.00
2018-06-09T12:05:55.559Z,2456.00
2018-06-09T12:06:55.584Z,2432.00
2018-06-09T12:07:55.439Z,1576.00
2018-06-09T12:08:55.494Z,1124.00
2018-06-09T12:09:55.316Z,1068.00
2018-06-09T12:10:55.302Z,1032.00
2018-06-09T12:11:55.195Z,1000.00
2018-06-09T12:12:55.214Z,1016.00
2018-06-09T12:13:55.076Z,1484.00
2018-06-09T12:14:55.130Z,2284.00
2018-06-09T12:15:54.950Z,2252.00
2018-06-09T12:16:54.935Z,2236.00
2018-06-09T12:17:54.828Z,820.00
2018-06-09T12:18:54.849Z,756.00
2018-06-09T12:19:54.711Z,704.00
2018-06-09T12:20:54.757Z,660.00
2018-06-09T12:21:54.586Z,644.00
2018-06-09T12:22:54.567Z,628.00
2018-06-09T12:23:54.461Z,620.00
2018-06-09T12:24:54.531Z,612.00
2018-06-09T12:25:54.347Z,616.00
2018-06-09T12:26:54.399Z,620.00
2018-06-09T12:27:54.223Z,632.00
2018-06-09T12:28:54.198Z,628.00
2018-06-09T12:29:54.096Z,632.00
2018-06-09T12:30:54.109Z,648.00